sensor_id;sensor_type;location;lat;lon;timestamp;temperature;humidity
16154;DHT22;8182;55.648;13.208;2023-10-13T00:01:40;8.20;99.90
16154;DHT22;8182;55.648;13.208;2023-10-13T00:04:07;8.20;99.90
16154;DHT22;8182;55.648;13.208;2023-10-13T00:06:35;8.20;99.90
16154;DHT22;8182;55.648;13.208;2023-10-13T00:09:03;8.20;99.90
16154;DHT22;8182;55.648;13.208;2023-10-13T00:11:30;8.30;99.90
16154;DHT22;8182;55.648;13.208;2023-10-13T00:13:57;8.20;99.90
16154;DHT22;8182;55.648;13.208;2023-10-13T00:16:25;8.00;99.90
16154;DHT22;8182;55.648;13.208;2023-10-13T00:18:57;7.90;99.90
16154;DHT22;8182;55.648;13.208;2023-10-13T00:21:27;7.80;99.90
16154;DHT22;8182;55.648;13.208;2023-10-13T00:23:58;7.80;99.90
16154;DHT22;8182;55.648;13.208;2023-10-13T00:26:34;7.60;99.90
16154;DHT22;8182;55.648;13.208;2023-10-13T00:29:03;7.50;99.90
16154;DHT22;8182;55.648;13.208;2023-10-13T00:31:43;7.50;99.90
16154;DHT22;8182;55.648;13.208;2023-10-13T00:34:14;7.50;99.90
16154;DHT22;8182;55.648;13.208;2023-10-13T00:36:45;7.60;99.90
16154;DHT22;8182;55.648;13.208;2023-10-13T00:39:14;7.60;99.90
16154;DHT22;8182;55.648;13.208;2023-10-13T00:41:48;7.70;99.90
16154;DHT22;8182;55.648;13.208;2023-10-13T00:44:18;7.50;99.90
16154;DHT22;8182;55.648;13.208;2023-10-13T00:46:55;7.40;99.90
16154;DHT22;8182;55.648;13.208;2023-10-13T00:49:26;7.20;99.90
16154;DHT22;8182;55.648;13.208;2023-10-13T00:51:53;7.10;99.90
16154;DHT22;8182;55.648;13.208;2023-10-13T00:54:22;7.10;99.90
16154;DHT22;8182;55.648;13.208;2023-10-13T00:56:56;7.00;99.90
16154;DHT22;8182;55.648;13.208;2023-10-13T00:59:37;7.00;99.90
16154;DHT22;8182;55.648;13.208;2023-10-13T01:02:05;7.00;99.90
16154;DHT22;8182;55.648;13.208;2023-10-13T01:04:46;7.00;99.90
16154;DHT22;8182;55.648;13.208;2023-10-13T01:07:13;6.90;99.90
16154;DHT22;8182;55.648;13.208;2023-10-13T01:09:41;6.90;99.90
16154;DHT22;8182;55.648;13.208;2023-10-13T01:12:08;6.80;99.90
16154;DHT22;8182;55.648;13.208;2023-10-13T01:14:34;6.70;99.90
16154;DHT22;8182;55.648;13.208;2023-10-13T01:17:01;6.70;99.90
16154;DHT22;8182;55.648;13.208;2023-10-13T01:19:29;6.70;99.90
16154;DHT22;8182;55.648;13.208;2023-10-13T01:21:56;6.60;99.90
16154;DHT22;8182;55.648;13.208;2023-10-13T01:24:29;6.80;99.90
16154;DHT22;8182;55.648;13.208;2023-10-13T01:27:08;6.80;99.90
16154;DHT22;8182;55.648;13.208;2023-10-13T01:29:45;6.80;99.90
16154;DHT22;8182;55.648;13.208;2023-10-13T01:32:16;6.60;99.90
16154;DHT22;8182;55.648;13.208;2023-10-13T01:34:43;6.50;99.90
16154;DHT22;8182;55.648;13.208;2023-10-13T01:37:12;6.40;99.90
16154;DHT22;8182;55.648;13.208;2023-10-13T01:39:42;6.30;99.90
16154;DHT22;8182;55.648;13.208;2023-10-13T01:42:12;6.30;99.90
16154;DHT22;8182;55.648;13.208;2023-10-13T01:44:45;6.20;99.90
16154;DHT22;8182;55.648;13.208;2023-10-13T01:47:12;6.30;99.90
16154;DHT22;8182;55.648;13.208;2023-10-13T01:49:45;6.30;99.90
16154;DHT22;8182;55.648;13.208;2023-10-13T01:52:15;6.20;99.90
16154;DHT22;8182;55.648;13.208;2023-10-13T01:54:43;6.40;99.90
16154;DHT22;8182;55.648;13.208;2023-10-13T01:57:10;6.40;99.90
16154;DHT22;8182;55.648;13.208;2023-10-13T01:59:39;6.30;99.90
16154;DHT22;8182;55.648;13.208;2023-10-13T02:02:09;6.30;99.90
16154;DHT22;8182;55.648;13.208;2023-10-13T02:04:38;6.30;99.90
16154;DHT22;8182;55.648;13.208;2023-10-13T02:07:08;6.30;99.90
16154;DHT22;8182;55.648;13.208;2023-10-13T02:09:35;6.20;99.90
16154;DHT22;8182;55.648;13.208;2023-10-13T02:12:04;6.20;99.90
16154;DHT22;8182;55.648;13.208;2023-10-13T02:14:40;6.20;99.90
16154;DHT22;8182;55.648;13.208;2023-10-13T02:17:07;6.20;99.90
16154;DHT22;8182;55.648;13.208;2023-10-13T02:19:45;6.20;99.90
16154;DHT22;8182;55.648;13.208;2023-10-13T02:22:13;6.20;99.90
16154;DHT22;8182;55.648;13.208;2023-10-13T02:24:53;6.00;99.90
16154;DHT22;8182;55.648;13.208;2023-10-13T02:27:20;6.00;99.90
16154;DHT22;8182;55.648;13.208;2023-10-13T02:29:49;6.00;99.90
16154;DHT22;8182;55.648;13.208;2023-10-13T02:32:15;6.00;99.90
16154;DHT22;8182;55.648;13.208;2023-10-13T02:34:44;5.90;99.90
16154;DHT22;8182;55.648;13.208;2023-10-13T02:37:10;5.90;99.90
16154;DHT22;8182;55.648;13.208;2023-10-13T02:39:38;5.80;99.90
16154;DHT22;8182;55.648;13.208;2023-10-13T02:42:06;5.70;99.90
16154;DHT22;8182;55.648;13.208;2023-10-13T02:44:35;5.80;99.90
16154;DHT22;8182;55.648;13.208;2023-10-13T02:47:12;5.70;99.90
16154;DHT22;8182;55.648;13.208;2023-10-13T02:49:40;5.70;99.90
16154;DHT22;8182;55.648;13.208;2023-10-13T02:52:09;5.60;99.90
16154;DHT22;8182;55.648;13.208;2023-10-13T02:54:36;5.60;99.90
16154;DHT22;8182;55.648;13.208;2023-10-13T02:57:05;5.60;99.90
16154;DHT22;8182;55.648;13.208;2023-10-13T02:59:32;5.70;99.90
16154;DHT22;8182;55.648;13.208;2023-10-13T03:02:07;5.60;99.90
16154;DHT22;8182;55.648;13.208;2023-10-13T03:04:44;5.50;99.90
16154;DHT22;8182;55.648;13.208;2023-10-13T03:07:10;5.40;99.90
16154;DHT22;8182;55.648;13.208;2023-10-13T03:09:38;5.40;99.90
16154;DHT22;8182;55.648;13.208;2023-10-13T03:12:06;5.50;99.90
16154;DHT22;8182;55.648;13.208;2023-10-13T03:14:33;5.50;99.90
16154;DHT22;8182;55.648;13.208;2023-10-13T03:17:01;5.40;99.90
16154;DHT22;8182;55.648;13.208;2023-10-13T03:19:33;5.30;99.90
16154;DHT22;8182;55.648;13.208;2023-10-13T03:21:59;5.20;99.90
16154;DHT22;8182;55.648;13.208;2023-10-13T03:24:41;5.20;99.90
16154;DHT22;8182;55.648;13.208;2023-10-13T03:27:11;5.20;99.90
16154;DHT22;8182;55.648;13.208;2023-10-13T03:29:42;5.20;99.90
16154;DHT22;8182;55.648;13.208;2023-10-13T03:32:10;5.10;99.90
16154;DHT22;8182;55.648;13.208;2023-10-13T03:34:42;5.10;99.90
16154;DHT22;8182;55.648;13.208;2023-10-13T03:37:21;5.10;99.90
16154;DHT22;8182;55.648;13.208;2023-10-13T03:40:04;5.00;99.90
16154;DHT22;8182;55.648;13.208;2023-10-13T03:42:33;4.90;99.90
16154;DHT22;8182;55.648;13.208;2023-10-13T03:45:00;4.90;99.90
16154;DHT22;8182;55.648;13.208;2023-10-13T03:47:36;4.90;99.90
16154;DHT22;8182;55.648;13.208;2023-10-13T03:50:06;5.20;99.90
16154;DHT22;8182;55.648;13.208;2023-10-13T03:52:54;5.30;99.90
16154;DHT22;8182;55.648;13.208;2023-10-13T03:55:24;5.30;99.90
16154;DHT22;8182;55.648;13.208;2023-10-13T03:57:52;5.30;99.90
16154;DHT22;8182;55.648;13.208;2023-10-13T04:00:20;5.20;99.90
16154;DHT22;8182;55.648;13.208;2023-10-13T04:02:51;5.20;99.90
16154;DHT22;8182;55.648;13.208;2023-10-13T04:05:43;5.10;99.90
16154;DHT22;8182;55.648;13.208;2023-10-13T04:08:12;5.00;99.90
16154;DHT22;8182;55.648;13.208;2023-10-13T04:10:59;5.00;99.90
16154;DHT22;8182;55.648;13.208;2023-10-13T04:13:44;5.00;99.90
16154;DHT22;8182;55.648;13.208;2023-10-13T04:16:43;5.00;99.90
16154;DHT22;8182;55.648;13.208;2023-10-13T04:19:18;5.20;99.90
16154;DHT22;8182;55.648;13.208;2023-10-13T04:21:55;5.20;99.90
16154;DHT22;8182;55.648;13.208;2023-10-13T04:24:26;5.30;99.90
16154;DHT22;8182;55.648;13.208;2023-10-13T04:27:19;5.50;99.90
16154;DHT22;8182;55.648;13.208;2023-10-13T04:30:06;5.70;99.90
16154;DHT22;8182;55.648;13.208;2023-10-13T04:33:03;5.80;99.90
16154;DHT22;8182;55.648;13.208;2023-10-13T04:35:42;5.90;99.90
16154;DHT22;8182;55.648;13.208;2023-10-13T04:38:30;5.90;99.90
16154;DHT22;8182;55.648;13.208;2023-10-13T04:41:15;6.00;99.90
16154;DHT22;8182;55.648;13.208;2023-10-13T04:43:48;6.10;99.90
16154;DHT22;8182;55.648;13.208;2023-10-13T04:46:33;6.20;99.90
16154;DHT22;8182;55.648;13.208;2023-10-13T04:49:21;6.20;99.90
16154;DHT22;8182;55.648;13.208;2023-10-13T04:51:55;6.30;99.90
16154;DHT22;8182;55.648;13.208;2023-10-13T04:54:25;6.40;99.90
16154;DHT22;8182;55.648;13.208;2023-10-13T04:56:59;6.40;99.90
16154;DHT22;8182;55.648;13.208;2023-10-13T04:59:45;6.50;99.90
16154;DHT22;8182;55.648;13.208;2023-10-13T05:02:30;6.40;99.90
16154;DHT22;8182;55.648;13.208;2023-10-13T05:05:25;6.60;99.90
16154;DHT22;8182;55.648;13.208;2023-10-13T05:08:11;6.70;99.90
16154;DHT22;8182;55.648;13.208;2023-10-13T05:11:02;6.80;99.90
16154;DHT22;8182;55.648;13.208;2023-10-13T05:13:47;6.90;99.90
16154;DHT22;8182;55.648;13.208;2023-10-13T05:16:31;6.90;99.90
16154;DHT22;8182;55.648;13.208;2023-10-13T05:19:24;7.00;99.90
16154;DHT22;8182;55.648;13.208;2023-10-13T05:22:10;7.10;99.90
16154;DHT22;8182;55.648;13.208;2023-10-13T05:24:56;7.20;99.90
16154;DHT22;8182;55.648;13.208;2023-10-13T05:27:40;7.20;99.90
16154;DHT22;8182;55.648;13.208;2023-10-13T05:30:27;7.20;99.90
16154;DHT22;8182;55.648;13.208;2023-10-13T05:33:11;7.30;99.90
16154;DHT22;8182;55.648;13.208;2023-10-13T05:35:56;7.30;99.90
16154;DHT22;8182;55.648;13.208;2023-10-13T05:38:45;7.40;99.90
16154;DHT22;8182;55.648;13.208;2023-10-13T05:41:29;7.50;99.90
16154;DHT22;8182;55.648;13.208;2023-10-13T05:44:14;7.60;99.90
16154;DHT22;8182;55.648;13.208;2023-10-13T05:47:01;7.70;99.90
16154;DHT22;8182;55.648;13.208;2023-10-13T05:49:49;7.70;99.90
16154;DHT22;8182;55.648;13.208;2023-10-13T05:52:30;7.80;99.90
16154;DHT22;8182;55.648;13.208;2023-10-13T05:55:27;7.80;99.90
16154;DHT22;8182;55.648;13.208;2023-10-13T05:58:18;7.80;99.90
16154;DHT22;8182;55.648;13.208;2023-10-13T06:01:14;7.90;99.90
16154;DHT22;8182;55.648;13.208;2023-10-13T06:04:00;7.90;99.90
16154;DHT22;8182;55.648;13.208;2023-10-13T06:06:45;8.00;99.90
16154;DHT22;8182;55.648;13.208;2023-10-13T06:09:29;8.10;99.90
16154;DHT22;8182;55.648;13.208;2023-10-13T06:12:15;8.10;99.90
16154;DHT22;8182;55.648;13.208;2023-10-13T06:15:00;8.20;99.90
16154;DHT22;8182;55.648;13.208;2023-10-13T06:17:47;8.30;99.90
16154;DHT22;8182;55.648;13.208;2023-10-13T06:20:38;8.40;99.90
16154;DHT22;8182;55.648;13.208;2023-10-13T06:23:22;8.50;99.90
16154;DHT22;8182;55.648;13.208;2023-10-13T06:26:07;8.50;99.90
16154;DHT22;8182;55.648;13.208;2023-10-13T06:28:53;8.50;99.90
16154;DHT22;8182;55.648;13.208;2023-10-13T06:31:25;8.60;99.90
16154;DHT22;8182;55.648;13.208;2023-10-13T06:33:52;8.70;99.90
16154;DHT22;8182;55.648;13.208;2023-10-13T06:36:24;8.80;99.90
16154;DHT22;8182;55.648;13.208;2023-10-13T06:39:00;9.00;99.90
16154;DHT22;8182;55.648;13.208;2023-10-13T06:41:41;8.80;99.90
16154;DHT22;8182;55.648;13.208;2023-10-13T06:44:09;8.90;99.90
16154;DHT22;8182;55.648;13.208;2023-10-13T06:46:42;8.90;99.90
16154;DHT22;8182;55.648;13.208;2023-10-13T06:49:09;9.10;99.90
16154;DHT22;8182;55.648;13.208;2023-10-13T06:51:38;9.10;99.90
16154;DHT22;8182;55.648;13.208;2023-10-13T06:54:06;9.10;99.90
16154;DHT22;8182;55.648;13.208;2023-10-13T06:56:44;9.20;99.90
16154;DHT22;8182;55.648;13.208;2023-10-13T06:59:13;9.20;99.90
16154;DHT22;8182;55.648;13.208;2023-10-13T07:01:40;9.30;99.90
16154;DHT22;8182;55.648;13.208;2023-10-13T07:04:08;9.30;99.90
16154;DHT22;8182;55.648;13.208;2023-10-13T07:06:40;9.30;99.90
16154;DHT22;8182;55.648;13.208;2023-10-13T07:09:13;9.40;99.90
16154;DHT22;8182;55.648;13.208;2023-10-13T07:12:02;9.50;99.90
16154;DHT22;8182;55.648;13.208;2023-10-13T07:14:47;9.50;99.90
16154;DHT22;8182;55.648;13.208;2023-10-13T07:17:18;9.60;99.90
16154;DHT22;8182;55.648;13.208;2023-10-13T07:19:50;9.70;99.90
16154;DHT22;8182;55.648;13.208;2023-10-13T07:22:21;9.80;99.90
16154;DHT22;8182;55.648;13.208;2023-10-13T07:24:53;9.90;99.90
16154;DHT22;8182;55.648;13.208;2023-10-13T07:27:26;10.00;99.90
16154;DHT22;8182;55.648;13.208;2023-10-13T07:30:03;10.00;99.90
16154;DHT22;8182;55.648;13.208;2023-10-13T07:32:39;10.10;99.90
16154;DHT22;8182;55.648;13.208;2023-10-13T07:35:14;10.10;99.90
16154;DHT22;8182;55.648;13.208;2023-10-13T07:37:43;10.10;99.90
16154;DHT22;8182;55.648;13.208;2023-10-13T07:40:10;10.20;99.90
16154;DHT22;8182;55.648;13.208;2023-10-13T07:43:05;10.30;99.90
16154;DHT22;8182;55.648;13.208;2023-10-13T07:45:38;10.30;99.90
16154;DHT22;8182;55.648;13.208;2023-10-13T07:48:07;10.40;99.90
16154;DHT22;8182;55.648;13.208;2023-10-13T07:50:41;10.40;99.90
16154;DHT22;8182;55.648;13.208;2023-10-13T07:53:09;10.40;99.90
16154;DHT22;8182;55.648;13.208;2023-10-13T07:55:51;10.50;99.90
16154;DHT22;8182;55.648;13.208;2023-10-13T07:58:21;10.60;99.90
16154;DHT22;8182;55.648;13.208;2023-10-13T08:00:52;10.70;99.90
16154;DHT22;8182;55.648;13.208;2023-10-13T08:03:32;10.80;99.90
16154;DHT22;8182;55.648;13.208;2023-10-13T08:06:04;10.70;99.90
16154;DHT22;8182;55.648;13.208;2023-10-13T08:08:32;10.80;99.90
16154;DHT22;8182;55.648;13.208;2023-10-13T08:11:05;10.80;99.90
16154;DHT22;8182;55.648;13.208;2023-10-13T08:13:50;10.90;99.90
16154;DHT22;8182;55.648;13.208;2023-10-13T08:16:23;11.00;99.90
16154;DHT22;8182;55.648;13.208;2023-10-13T08:18:55;11.00;99.90
16154;DHT22;8182;55.648;13.208;2023-10-13T08:21:23;11.00;99.90
16154;DHT22;8182;55.648;13.208;2023-10-13T08:23:50;11.10;99.90
16154;DHT22;8182;55.648;13.208;2023-10-13T08:26:33;11.10;99.90
16154;DHT22;8182;55.648;13.208;2023-10-13T08:29:19;11.20;99.90
16154;DHT22;8182;55.648;13.208;2023-10-13T08:32:06;11.20;99.90
16154;DHT22;8182;55.648;13.208;2023-10-13T08:34:49;11.30;99.90
16154;DHT22;8182;55.648;13.208;2023-10-13T08:37:35;11.40;99.90
16154;DHT22;8182;55.648;13.208;2023-10-13T08:40:30;11.40;99.90
16154;DHT22;8182;55.648;13.208;2023-10-13T08:43:14;11.40;99.90
16154;DHT22;8182;55.648;13.208;2023-10-13T08:45:43;11.30;99.90
16154;DHT22;8182;55.648;13.208;2023-10-13T08:48:27;11.50;99.90
16154;DHT22;8182;55.648;13.208;2023-10-13T08:51:00;11.50;99.90
16154;DHT22;8182;55.648;13.208;2023-10-13T08:53:51;11.60;99.90
16154;DHT22;8182;55.648;13.208;2023-10-13T08:56:24;11.60;99.90
16154;DHT22;8182;55.648;13.208;2023-10-13T08:59:03;11.60;99.90
16154;DHT22;8182;55.648;13.208;2023-10-13T09:01:38;11.70;99.90
16154;DHT22;8182;55.648;13.208;2023-10-13T09:04:14;11.70;99.90
16154;DHT22;8182;55.648;13.208;2023-10-13T09:06:52;11.70;99.90
16154;DHT22;8182;55.648;13.208;2023-10-13T09:12:58;11.80;99.90
16154;DHT22;8182;55.648;13.208;2023-10-13T09:15:37;11.90;99.90
16154;DHT22;8182;55.648;13.208;2023-10-13T09:18:25;11.90;99.90
16154;DHT22;8182;55.648;13.208;2023-10-13T09:21:14;12.00;99.90
16154;DHT22;8182;55.648;13.208;2023-10-13T09:24:09;12.00;99.90
16154;DHT22;8182;55.648;13.208;2023-10-13T09:26:53;12.10;99.90
16154;DHT22;8182;55.648;13.208;2023-10-13T09:29:42;12.10;99.90
16154;DHT22;8182;55.648;13.208;2023-10-13T09:32:15;12.10;99.90
16154;DHT22;8182;55.648;13.208;2023-10-13T09:34:49;12.20;99.90
16154;DHT22;8182;55.648;13.208;2023-10-13T09:37:18;12.20;99.90
16154;DHT22;8182;55.648;13.208;2023-10-13T09:39:47;12.30;99.90
16154;DHT22;8182;55.648;13.208;2023-10-13T09:42:17;12.40;99.90
16154;DHT22;8182;55.648;13.208;2023-10-13T09:44:45;12.40;99.90
16154;DHT22;8182;55.648;13.208;2023-10-13T09:47:20;12.30;99.90
16154;DHT22;8182;55.648;13.208;2023-10-13T09:49:59;12.50;99.90
16154;DHT22;8182;55.648;13.208;2023-10-13T09:52:42;12.60;99.90
16154;DHT22;8182;55.648;13.208;2023-10-13T09:55:13;12.60;99.90
16154;DHT22;8182;55.648;13.208;2023-10-13T09:57:52;12.70;99.90
16154;DHT22;8182;55.648;13.208;2023-10-13T10:00:26;12.70;99.90
16154;DHT22;8182;55.648;13.208;2023-10-13T10:03:08;12.80;99.90
16154;DHT22;8182;55.648;13.208;2023-10-13T10:05:57;12.90;99.90
16154;DHT22;8182;55.648;13.208;2023-10-13T10:08:32;12.90;99.90
16154;DHT22;8182;55.648;13.208;2023-10-13T10:11:26;13.00;99.90
16154;DHT22;8182;55.648;13.208;2023-10-13T10:14:07;13.00;99.90
16154;DHT22;8182;55.648;13.208;2023-10-13T10:16:53;13.00;99.90
16154;DHT22;8182;55.648;13.208;2023-10-13T10:19:25;13.20;99.90
16154;DHT22;8182;55.648;13.208;2023-10-13T10:22:01;13.20;99.90
16154;DHT22;8182;55.648;13.208;2023-10-13T10:24:31;13.30;99.90
16154;DHT22;8182;55.648;13.208;2023-10-13T10:27:02;13.30;99.90
16154;DHT22;8182;55.648;13.208;2023-10-13T10:29:30;13.30;99.90
16154;DHT22;8182;55.648;13.208;2023-10-13T10:31:58;13.40;99.90
16154;DHT22;8182;55.648;13.208;2023-10-13T10:34:30;13.40;99.90
16154;DHT22;8182;55.648;13.208;2023-10-13T10:37:07;13.50;99.90
16154;DHT22;8182;55.648;13.208;2023-10-13T10:39:36;13.50;99.90
16154;DHT22;8182;55.648;13.208;2023-10-13T10:42:11;13.50;99.90
16154;DHT22;8182;55.648;13.208;2023-10-13T10:44:50;13.50;99.90
16154;DHT22;8182;55.648;13.208;2023-10-13T10:47:21;13.60;99.90
16154;DHT22;8182;55.648;13.208;2023-10-13T10:49:59;13.60;99.90
16154;DHT22;8182;55.648;13.208;2023-10-13T10:52:34;13.60;99.90
16154;DHT22;8182;55.648;13.208;2023-10-13T10:55:04;13.70;99.90
16154;DHT22;8182;55.648;13.208;2023-10-13T10:57:34;13.70;99.90
16154;DHT22;8182;55.648;13.208;2023-10-13T11:00:04;13.70;99.90
16154;DHT22;8182;55.648;13.208;2023-10-13T11:02:43;13.80;99.90
16154;DHT22;8182;55.648;13.208;2023-10-13T11:05:20;13.80;99.90
16154;DHT22;8182;55.648;13.208;2023-10-13T11:07:47;13.80;99.90
16154;DHT22;8182;55.648;13.208;2023-10-13T11:10:34;13.90;99.90
16154;DHT22;8182;55.648;13.208;2023-10-13T11:13:04;13.90;99.90
16154;DHT22;8182;55.648;13.208;2023-10-13T11:15:42;13.90;99.90
16154;DHT22;8182;55.648;13.208;2023-10-13T11:18:11;14.00;99.90
16154;DHT22;8182;55.648;13.208;2023-10-13T11:20:42;14.00;99.90
16154;DHT22;8182;55.648;13.208;2023-10-13T11:23:19;14.10;99.90
16154;DHT22;8182;55.648;13.208;2023-10-13T11:25:58;14.00;99.90
16154;DHT22;8182;55.648;13.208;2023-10-13T11:28:26;14.10;99.90
16154;DHT22;8182;55.648;13.208;2023-10-13T11:30:58;14.10;99.90
16154;DHT22;8182;55.648;13.208;2023-10-13T11:33:26;14.10;99.90
16154;DHT22;8182;55.648;13.208;2023-10-13T11:35:57;14.20;99.90
16154;DHT22;8182;55.648;13.208;2023-10-13T11:38:30;14.20;99.90
16154;DHT22;8182;55.648;13.208;2023-10-13T11:41:17;14.20;99.90
16154;DHT22;8182;55.648;13.208;2023-10-13T11:43:54;14.30;99.90
16154;DHT22;8182;55.648;13.208;2023-10-13T11:46:49;14.30;99.90
16154;DHT22;8182;55.648;13.208;2023-10-13T11:49:53;14.30;99.90
16154;DHT22;8182;55.648;13.208;2023-10-13T11:52:28;14.30;99.90
16154;DHT22;8182;55.648;13.208;2023-10-13T11:54:55;14.40;99.90
16154;DHT22;8182;55.648;13.208;2023-10-13T11:57:38;14.40;99.90
16154;DHT22;8182;55.648;13.208;2023-10-13T12:00:05;14.50;99.90
16154;DHT22;8182;55.648;13.208;2023-10-13T12:03:01;14.50;99.90
16154;DHT22;8182;55.648;13.208;2023-10-13T12:05:45;14.50;99.90
16154;DHT22;8182;55.648;13.208;2023-10-13T12:08:43;14.50;99.90
16154;DHT22;8182;55.648;13.208;2023-10-13T12:11:15;14.50;99.90
16154;DHT22;8182;55.648;13.208;2023-10-13T12:13:57;14.50;99.90
16154;DHT22;8182;55.648;13.208;2023-10-13T12:16:36;14.50;99.90
16154;DHT22;8182;55.648;13.208;2023-10-13T12:19:13;14.60;99.90
16154;DHT22;8182;55.648;13.208;2023-10-13T12:21:42;14.60;99.90
16154;DHT22;8182;55.648;13.208;2023-10-13T12:24:09;14.60;99.90
16154;DHT22;8182;55.648;13.208;2023-10-13T12:26:48;14.60;99.90
16154;DHT22;8182;55.648;13.208;2023-10-13T12:29:23;14.60;99.90
16154;DHT22;8182;55.648;13.208;2023-10-13T12:31:59;14.60;99.90
16154;DHT22;8182;55.648;13.208;2023-10-13T12:34:36;14.70;99.90
16154;DHT22;8182;55.648;13.208;2023-10-13T12:37:23;14.70;99.90
16154;DHT22;8182;55.648;13.208;2023-10-13T12:40:17;14.70;99.90
16154;DHT22;8182;55.648;13.208;2023-10-13T12:43:02;14.70;99.90
16154;DHT22;8182;55.648;13.208;2023-10-13T12:45:49;14.80;99.90
16154;DHT22;8182;55.648;13.208;2023-10-13T12:48:34;14.70;99.90
16154;DHT22;8182;55.648;13.208;2023-10-13T12:51:26;14.70;99.90
16154;DHT22;8182;55.648;13.208;2023-10-13T12:54:16;14.70;99.90
16154;DHT22;8182;55.648;13.208;2023-10-13T12:56:49;14.70;99.90
16154;DHT22;8182;55.648;13.208;2023-10-13T12:59:22;14.70;99.90
16154;DHT22;8182;55.648;13.208;2023-10-13T13:01:56;14.80;99.90
16154;DHT22;8182;55.648;13.208;2023-10-13T13:04:23;14.90;99.90
16154;DHT22;8182;55.648;13.208;2023-10-13T13:06:53;14.90;99.90
16154;DHT22;8182;55.648;13.208;2023-10-13T13:09:21;14.90;99.90
16154;DHT22;8182;55.648;13.208;2023-10-13T13:11:52;14.90;99.90
16154;DHT22;8182;55.648;13.208;2023-10-13T13:14:22;14.90;99.90
16154;DHT22;8182;55.648;13.208;2023-10-13T13:16:57;15.00;99.90
16154;DHT22;8182;55.648;13.208;2023-10-13T13:19:30;14.90;99.90
16154;DHT22;8182;55.648;13.208;2023-10-13T13:22:00;14.90;99.90
16154;DHT22;8182;55.648;13.208;2023-10-13T13:24:27;15.00;99.90
16154;DHT22;8182;55.648;13.208;2023-10-13T13:26:58;15.00;99.90
16154;DHT22;8182;55.648;13.208;2023-10-13T13:29:29;15.00;99.90
16154;DHT22;8182;55.648;13.208;2023-10-13T13:32:00;15.10;99.90
16154;DHT22;8182;55.648;13.208;2023-10-13T13:34:31;15.10;99.90
16154;DHT22;8182;55.648;13.208;2023-10-13T13:36:58;15.10;99.90
16154;DHT22;8182;55.648;13.208;2023-10-13T13:39:30;15.10;99.90
16154;DHT22;8182;55.648;13.208;2023-10-13T13:41:58;15.20;99.90
16154;DHT22;8182;55.648;13.208;2023-10-13T13:44:24;15.10;99.90
16154;DHT22;8182;55.648;13.208;2023-10-13T13:47:01;15.10;99.90
16154;DHT22;8182;55.648;13.208;2023-10-13T13:49:30;15.10;99.90
16154;DHT22;8182;55.648;13.208;2023-10-13T13:52:05;15.10;99.90
16154;DHT22;8182;55.648;13.208;2023-10-13T13:54:32;15.00;99.90
16154;DHT22;8182;55.648;13.208;2023-10-13T13:56:59;15.00;99.90
16154;DHT22;8182;55.648;13.208;2023-10-13T13:59:33;15.00;99.90
16154;DHT22;8182;55.648;13.208;2023-10-13T14:02:04;15.10;99.90
16154;DHT22;8182;55.648;13.208;2023-10-13T14:04:45;15.10;99.90
16154;DHT22;8182;55.648;13.208;2023-10-13T14:07:12;15.10;99.90
16154;DHT22;8182;55.648;13.208;2023-10-13T14:09:40;15.00;99.90
16154;DHT22;8182;55.648;13.208;2023-10-13T14:12:09;15.10;99.90
16154;DHT22;8182;55.648;13.208;2023-10-13T14:14:53;15.10;99.90
16154;DHT22;8182;55.648;13.208;2023-10-13T14:17:24;15.10;99.90
16154;DHT22;8182;55.648;13.208;2023-10-13T14:19:58;15.10;99.90
16154;DHT22;8182;55.648;13.208;2023-10-13T14:22:26;15.10;99.90
16154;DHT22;8182;55.648;13.208;2023-10-13T14:25:02;15.00;99.90
16154;DHT22;8182;55.648;13.208;2023-10-13T14:27:34;15.00;99.90
16154;DHT22;8182;55.648;13.208;2023-10-13T14:30:01;15.10;99.90
16154;DHT22;8182;55.648;13.208;2023-10-13T14:32:32;15.10;99.90
16154;DHT22;8182;55.648;13.208;2023-10-13T14:35:06;15.10;99.90
16154;DHT22;8182;55.648;13.208;2023-10-13T14:37:40;15.00;99.90
16154;DHT22;8182;55.648;13.208;2023-10-13T14:40:08;15.10;99.90
16154;DHT22;8182;55.648;13.208;2023-10-13T14:42:38;15.10;99.90
16154;DHT22;8182;55.648;13.208;2023-10-13T14:45:07;15.20;99.90
16154;DHT22;8182;55.648;13.208;2023-10-13T14:47:39;15.20;99.90
16154;DHT22;8182;55.648;13.208;2023-10-13T14:50:07;15.20;99.90
16154;DHT22;8182;55.648;13.208;2023-10-13T14:52:42;15.20;99.90
16154;DHT22;8182;55.648;13.208;2023-10-13T14:55:09;15.20;99.90
16154;DHT22;8182;55.648;13.208;2023-10-13T14:58:04;15.20;99.90
16154;DHT22;8182;55.648;13.208;2023-10-13T15:00:33;15.30;99.90
16154;DHT22;8182;55.648;13.208;2023-10-13T15:03:04;15.20;99.90
16154;DHT22;8182;55.648;13.208;2023-10-13T15:05:38;15.30;99.90
16154;DHT22;8182;55.648;13.208;2023-10-13T15:08:05;15.30;99.90
16154;DHT22;8182;55.648;13.208;2023-10-13T15:10:32;15.40;99.90
16154;DHT22;8182;55.648;13.208;2023-10-13T15:13:02;15.40;99.90
16154;DHT22;8182;55.648;13.208;2023-10-13T15:15:29;15.50;99.90
16154;DHT22;8182;55.648;13.208;2023-10-13T15:17:57;15.50;99.90
16154;DHT22;8182;55.648;13.208;2023-10-13T15:20:26;15.50;99.90
16154;DHT22;8182;55.648;13.208;2023-10-13T15:22:53;15.60;99.90
16154;DHT22;8182;55.648;13.208;2023-10-13T15:25:25;15.60;99.90
16154;DHT22;8182;55.648;13.208;2023-10-13T15:28:00;15.60;99.90
16154;DHT22;8182;55.648;13.208;2023-10-13T15:30:33;15.60;99.90
16154;DHT22;8182;55.648;13.208;2023-10-13T15:33:10;15.70;99.90
16154;DHT22;8182;55.648;13.208;2023-10-13T15:35:39;15.70;99.90
16154;DHT22;8182;55.648;13.208;2023-10-13T15:38:09;15.70;99.90
16154;DHT22;8182;55.648;13.208;2023-10-13T15:40:40;15.70;99.90
16154;DHT22;8182;55.648;13.208;2023-10-13T15:43:08;15.70;99.90
16154;DHT22;8182;55.648;13.208;2023-10-13T15:45:35;15.70;99.90
16154;DHT22;8182;55.648;13.208;2023-10-13T15:48:06;15.80;99.90
16154;DHT22;8182;55.648;13.208;2023-10-13T15:50:36;15.90;99.90
16154;DHT22;8182;55.648;13.208;2023-10-13T15:53:06;15.90;99.90
16154;DHT22;8182;55.648;13.208;2023-10-13T15:55:37;15.90;99.90
16154;DHT22;8182;55.648;13.208;2023-10-13T15:58:04;15.90;99.90
16154;DHT22;8182;55.648;13.208;2023-10-13T16:00:34;15.90;99.90
16154;DHT22;8182;55.648;13.208;2023-10-13T16:03:01;16.00;99.90
16154;DHT22;8182;55.648;13.208;2023-10-13T16:05:37;16.10;99.90
16154;DHT22;8182;55.648;13.208;2023-10-13T16:08:07;16.10;99.90
16154;DHT22;8182;55.648;13.208;2023-10-13T16:10:37;16.10;99.90
16154;DHT22;8182;55.648;13.208;2023-10-13T16:13:04;16.10;99.90
16154;DHT22;8182;55.648;13.208;2023-10-13T16:15:36;16.10;99.90
16154;DHT22;8182;55.648;13.208;2023-10-13T16:18:06;16.30;99.90
16154;DHT22;8182;55.648;13.208;2023-10-13T16:20:34;16.20;99.90
16154;DHT22;8182;55.648;13.208;2023-10-13T16:23:01;16.30;99.90
16154;DHT22;8182;55.648;13.208;2023-10-13T16:25:30;16.30;99.90
16154;DHT22;8182;55.648;13.208;2023-10-13T16:27:57;16.50;99.90
16154;DHT22;8182;55.648;13.208;2023-10-13T16:30:23;16.60;99.90